sensor_id;sensor_type;location;lat;lon;timestamp;P1;durP1;ratioP1;P2;durP2;ratioP2
12848;SDS011;6493;50.928;7.172;2024-01-15T00:01:56;5.47;;;3.60;;
12848;SDS011;6493;50.928;7.172;2024-01-15T00:07:00;6.30;;;4.10;;
12848;SDS011;6493;50.928;7.172;2024-01-15T00:12:04;7.70;;;4.10;;
12848;SDS011;6493;50.928;7.172;2024-01-15T00:17:10;5.97;;;3.80;;
12848;SDS011;6493;50.928;7.172;2024-01-15T00:22:13;6.37;;;3.87;;
12848;SDS011;6493;50.928;7.172;2024-01-15T00:27:17;7.47;;;5.07;;
12848;SDS011;6493;50.928;7.172;2024-01-15T00:32:22;7.13;;;4.43;;
12848;SDS011;6493;50.928;7.172;2024-01-15T00:37:26;6.57;;;4.27;;
12848;SDS011;6493;50.928;7.172;2024-01-15T00:42:29;10.87;;;6.03;;
12848;SDS011;6493;50.928;7.172;2024-01-15T00:47:34;7.53;;;5.40;;
12848;SDS011;6493;50.928;7.172;2024-01-15T00:52:38;8.57;;;5.00;;
12848;SDS011;6493;50.928;7.172;2024-01-15T00:57:42;9.47;;;5.23;;
12848;SDS011;6493;50.928;7.172;2024-01-15T01:02:47;6.97;;;4.13;;
12848;SDS011;6493;50.928;7.172;2024-01-15T01:07:51;7.13;;;4.83;;
12848;SDS011;6493;50.928;7.172;2024-01-15T01:12:54;8.33;;;5.10;;
12848;SDS011;6493;50.928;7.172;2024-01-15T01:17:59;6.97;;;4.97;;
12848;SDS011;6493;50.928;7.172;2024-01-15T01:23:03;10.53;;;6.17;;
12848;SDS011;6493;50.928;7.172;2024-01-15T01:28:07;10.43;;;5.73;;
12848;SDS011;6493;50.928;7.172;2024-01-15T01:33:12;7.33;;;4.60;;
12848;SDS011;6493;50.928;7.172;2024-01-15T01:38:16;6.50;;;4.20;;
12848;SDS011;6493;50.928;7.172;2024-01-15T01:43:19;7.33;;;4.80;;
12848;SDS011;6493;50.928;7.172;2024-01-15T01:48:25;6.40;;;4.03;;
12848;SDS011;6493;50.928;7.172;2024-01-15T01:53:29;6.73;;;4.10;;
12848;SDS011;6493;50.928;7.172;2024-01-15T01:58:34;6.80;;;4.73;;
12848;SDS011;6493;50.928;7.172;2024-01-15T02:03:39;7.17;;;4.77;;
12848;SDS011;6493;50.928;7.172;2024-01-15T02:08:43;8.07;;;4.57;;
12848;SDS011;6493;50.928;7.172;2024-01-15T02:13:47;9.53;;;5.50;;
12848;SDS011;6493;50.928;7.172;2024-01-15T02:18:52;6.93;;;4.40;;
12848;SDS011;6493;50.928;7.172;2024-01-15T02:23:57;9.30;;;5.30;;
12848;SDS011;6493;50.928;7.172;2024-01-15T02:29:01;7.80;;;4.73;;
12848;SDS011;6493;50.928;7.172;2024-01-15T02:34:05;6.83;;;4.73;;
12848;SDS011;6493;50.928;7.172;2024-01-15T02:39:10;7.53;;;4.40;;
12848;SDS011;6493;50.928;7.172;2024-01-15T02:44:13;7.73;;;5.53;;
12848;SDS011;6493;50.928;7.172;2024-01-15T02:49:17;7.43;;;4.70;;
12848;SDS011;6493;50.928;7.172;2024-01-15T02:54:22;8.47;;;5.73;;
12848;SDS011;6493;50.928;7.172;2024-01-15T02:59:26;8.37;;;5.17;;
12848;SDS011;6493;50.928;7.172;2024-01-15T03:04:29;6.87;;;4.53;;
12848;SDS011;6493;50.928;7.172;2024-01-15T03:09:34;8.07;;;5.43;;
12848;SDS011;6493;50.928;7.172;2024-01-15T03:14:38;10.30;;;5.00;;
12848;SDS011;6493;50.928;7.172;2024-01-15T03:19:42;10.07;;;5.70;;
12848;SDS011;6493;50.928;7.172;2024-01-15T03:24:47;8.93;;;5.27;;
12848;SDS011;6493;50.928;7.172;2024-01-15T03:29:51;6.60;;;4.63;;
12848;SDS011;6493;50.928;7.172;2024-01-15T03:34:54;5.47;;;3.50;;
12848;SDS011;6493;50.928;7.172;2024-01-15T03:39:59;6.47;;;4.07;;
12848;SDS011;6493;50.928;7.172;2024-01-15T03:45:03;6.20;;;4.03;;
12848;SDS011;6493;50.928;7.172;2024-01-15T03:50:08;6.43;;;4.47;;
12848;SDS011;6493;50.928;7.172;2024-01-15T03:55:13;6.20;;;4.23;;
12848;SDS011;6493;50.928;7.172;2024-01-15T04:00:17;6.37;;;3.90;;
12848;SDS011;6493;50.928;7.172;2024-01-15T04:05:21;7.13;;;4.70;;
12848;SDS011;6493;50.928;7.172;2024-01-15T04:10:26;7.80;;;4.80;;
12848;SDS011;6493;50.928;7.172;2024-01-15T04:15:30;7.40;;;4.10;;
12848;SDS011;6493;50.928;7.172;2024-01-15T04:20:33;7.23;;;5.10;;
12848;SDS011;6493;50.928;7.172;2024-01-15T04:25:38;6.07;;;3.50;;
12848;SDS011;6493;50.928;7.172;2024-01-15T04:30:44;5.13;;;3.77;;
12848;SDS011;6493;50.928;7.172;2024-01-15T04:35:48;5.93;;;4.00;;
12848;SDS011;6493;50.928;7.172;2024-01-15T04:40:53;8.17;;;4.33;;
12848;SDS011;6493;50.928;7.172;2024-01-15T04:45:59;5.50;;;4.00;;
12848;SDS011;6493;50.928;7.172;2024-01-15T04:51:05;5.33;;;3.50;;
12848;SDS011;6493;50.928;7.172;2024-01-15T04:56:12;5.43;;;3.33;;
12848;SDS011;6493;50.928;7.172;2024-01-15T05:01:16;5.60;;;3.90;;
12848;SDS011;6493;50.928;7.172;2024-01-15T05:06:20;4.77;;;3.00;;
12848;SDS011;6493;50.928;7.172;2024-01-15T05:11:25;3.83;;;2.77;;
12848;SDS011;6493;50.928;7.172;2024-01-15T05:16:29;4.80;;;3.50;;
12848;SDS011;6493;50.928;7.172;2024-01-15T05:21:32;4.43;;;3.40;;
12848;SDS011;6493;50.928;7.172;2024-01-15T05:26:37;6.33;;;4.13;;
12848;SDS011;6493;50.928;7.172;2024-01-15T05:31:41;6.97;;;3.80;;
12848;SDS011;6493;50.928;7.172;2024-01-15T05:36:45;3.87;;;3.03;;
12848;SDS011;6493;50.928;7.172;2024-01-15T05:41:51;6.20;;;3.40;;
12848;SDS011;6493;50.928;7.172;2024-01-15T05:46:55;4.30;;;2.43;;
12848;SDS011;6493;50.928;7.172;2024-01-15T05:51:58;4.07;;;2.27;;
12848;SDS011;6493;50.928;7.172;2024-01-15T05:57:03;5.67;;;3.43;;
12848;SDS011;6493;50.928;7.172;2024-01-15T06:02:07;6.10;;;3.60;;
12848;SDS011;6493;50.928;7.172;2024-01-15T06:07:11;5.57;;;3.30;;
12848;SDS011;6493;50.928;7.172;2024-01-15T06:12:16;3.77;;;2.57;;
12848;SDS011;6493;50.928;7.172;2024-01-15T06:17:19;3.97;;;2.80;;
12848;SDS011;6493;50.928;7.172;2024-01-15T06:22:23;5.40;;;2.77;;
12848;SDS011;6493;50.928;7.172;2024-01-15T06:27:28;3.97;;;2.33;;
12848;SDS011;6493;50.928;7.172;2024-01-15T06:32:32;2.33;;;2.10;;
12848;SDS011;6493;50.928;7.172;2024-01-15T06:37:35;3.37;;;2.60;;
12848;SDS011;6493;50.928;7.172;2024-01-15T06:42:40;2.80;;;2.07;;
12848;SDS011;6493;50.928;7.172;2024-01-15T06:47:44;2.57;;;1.90;;
12848;SDS011;6493;50.928;7.172;2024-01-15T06:52:48;3.43;;;2.17;;
12848;SDS011;6493;50.928;7.172;2024-01-15T06:57:53;2.53;;;2.23;;
12848;SDS011;6493;50.928;7.172;2024-01-15T07:02:56;3.00;;;2.40;;
12848;SDS011;6493;50.928;7.172;2024-01-15T07:08:00;3.97;;;2.93;;
12848;SDS011;6493;50.928;7.172;2024-01-15T07:13:05;3.60;;;2.57;;
12848;SDS011;6493;50.928;7.172;2024-01-15T07:18:08;2.47;;;2.27;;
12848;SDS011;6493;50.928;7.172;2024-01-15T07:23:12;3.30;;;2.47;;
12848;SDS011;6493;50.928;7.172;2024-01-15T07:28:17;4.20;;;3.00;;
12848;SDS011;6493;50.928;7.172;2024-01-15T07:33:21;3.40;;;2.20;;
12848;SDS011;6493;50.928;7.172;2024-01-15T07:38:26;3.07;;;2.20;;
12848;SDS011;6493;50.928;7.172;2024-01-15T07:43:31;3.33;;;2.50;;
12848;SDS011;6493;50.928;7.172;2024-01-15T07:48:34;3.40;;;2.63;;
12848;SDS011;6493;50.928;7.172;2024-01-15T07:53:38;3.20;;;2.43;;
12848;SDS011;6493;50.928;7.172;2024-01-15T07:58:43;3.30;;;2.30;;
12848;SDS011;6493;50.928;7.172;2024-01-15T08:03:47;3.23;;;2.40;;
12848;SDS011;6493;50.928;7.172;2024-01-15T08:08:51;2.83;;;2.10;;
12848;SDS011;6493;50.928;7.172;2024-01-15T08:13:56;3.47;;;2.90;;
12848;SDS011;6493;50.928;7.172;2024-01-15T08:18:59;2.93;;;2.03;;
12848;SDS011;6493;50.928;7.172;2024-01-15T08:24:03;5.10;;;2.13;;
12848;SDS011;6493;50.928;7.172;2024-01-15T08:29:09;4.57;;;2.80;;
12848;SDS011;6493;50.928;7.172;2024-01-15T08:34:13;2.63;;;2.43;;
12848;SDS011;6493;50.928;7.172;2024-01-15T08:39:16;4.23;;;3.43;;
12848;SDS011;6493;50.928;7.172;2024-01-15T08:44:22;4.13;;;2.83;;
12848;SDS011;6493;50.928;7.172;2024-01-15T08:49:26;4.20;;;3.20;;
12848;SDS011;6493;50.928;7.172;2024-01-15T08:54:29;4.57;;;3.33;;
12848;SDS011;6493;50.928;7.172;2024-01-15T08:59:34;4.80;;;3.63;;
12848;SDS011;6493;50.928;7.172;2024-01-15T09:04:39;5.57;;;4.10;;
12848;SDS011;6493;50.928;7.172;2024-01-15T09:09:42;5.17;;;3.40;;
12848;SDS011;6493;50.928;7.172;2024-01-15T09:14:47;2.93;;;2.57;;
12848;SDS011;6493;50.928;7.172;2024-01-15T09:19:52;4.80;;;3.03;;
12848;SDS011;6493;50.928;7.172;2024-01-15T09:24:56;3.80;;;2.87;;
12848;SDS011;6493;50.928;7.172;2024-01-15T09:30:01;5.13;;;3.80;;
12848;SDS011;6493;50.928;7.172;2024-01-15T09:35:05;6.87;;;4.20;;
12848;SDS011;6493;50.928;7.172;2024-01-15T09:40:11;6.33;;;4.20;;
12848;SDS011;6493;50.928;7.172;2024-01-15T09:45:18;5.53;;;3.63;;
12848;SDS011;6493;50.928;7.172;2024-01-15T09:50:22;5.53;;;3.30;;
12848;SDS011;6493;50.928;7.172;2024-01-15T09:55:25;6.70;;;2.60;;
12848;SDS011;6493;50.928;7.172;2024-01-15T10:00:31;3.43;;;2.90;;
12848;SDS011;6493;50.928;7.172;2024-01-15T10:05:38;2.53;;;1.87;;
12848;SDS011;6493;50.928;7.172;2024-01-15T10:10:42;3.73;;;2.53;;
12848;SDS011;6493;50.928;7.172;2024-01-15T10:15:47;3.10;;;2.67;;
12848;SDS011;6493;50.928;7.172;2024-01-15T10:20:51;2.10;;;1.90;;
12848;SDS011;6493;50.928;7.172;2024-01-15T10:25:56;2.00;;;1.80;;
12848;SDS011;6493;50.928;7.172;2024-01-15T10:31:01;1.77;;;1.40;;
12848;SDS011;6493;50.928;7.172;2024-01-15T10:36:06;3.57;;;1.90;;
12848;SDS011;6493;50.928;7.172;2024-01-15T10:41:13;1.67;;;1.57;;
12848;SDS011;6493;50.928;7.172;2024-01-15T10:46:19;1.67;;;1.40;;
12848;SDS011;6493;50.928;7.172;2024-01-15T10:51:23;2.37;;;2.00;;
12848;SDS011;6493;50.928;7.172;2024-01-15T10:56:28;1.70;;;1.60;;
12848;SDS011;6493;50.928;7.172;2024-01-15T11:01:35;1.90;;;1.60;;
12848;SDS011;6493;50.928;7.172;2024-01-15T11:06:43;1.73;;;1.30;;
12848;SDS011;6493;50.928;7.172;2024-01-15T11:11:48;1.70;;;1.40;;
12848;SDS011;6493;50.928;7.172;2024-01-15T11:16:56;1.43;;;0.97;;
12848;SDS011;6493;50.928;7.172;2024-01-15T11:22:01;1.20;;;1.10;;
12848;SDS011;6493;50.928;7.172;2024-01-15T11:27:05;1.10;;;1.00;;
12848;SDS011;6493;50.928;7.172;2024-01-15T11:32:11;1.00;;;0.90;;
12848;SDS011;6493;50.928;7.172;2024-01-15T11:37:15;1.10;;;1.00;;
12848;SDS011;6493;50.928;7.172;2024-01-15T11:42:19;1.30;;;0.93;;
12848;SDS011;6493;50.928;7.172;2024-01-15T11:53:27;1.57;;;1.20;;
12848;SDS011;6493;50.928;7.172;2024-01-15T11:58:39;1.10;;;1.00;;
12848;SDS011;6493;50.928;7.172;2024-01-15T12:03:43;2.00;;;1.30;;
12848;SDS011;6493;50.928;7.172;2024-01-15T12:08:51;0.97;;;0.80;;
12848;SDS011;6493;50.928;7.172;2024-01-15T12:14:09;0.80;;;0.80;;
12848;SDS011;6493;50.928;7.172;2024-01-15T12:19:13;0.83;;;0.70;;
12848;SDS011;6493;50.928;7.172;2024-01-15T12:24:19;1.10;;;1.00;;
12848;SDS011;6493;50.928;7.172;2024-01-15T12:29:22;1.30;;;1.10;;
12848;SDS011;6493;50.928;7.172;2024-01-15T12:34:28;2.10;;;1.70;;
12848;SDS011;6493;50.928;7.172;2024-01-15T12:39:34;1.13;;;1.03;;
12848;SDS011;6493;50.928;7.172;2024-01-15T12:44:38;1.57;;;1.30;;
12848;SDS011;6493;50.928;7.172;2024-01-15T12:49:42;1.20;;;1.10;;
12848;SDS011;6493;50.928;7.172;2024-01-15T12:54:51;1.63;;;1.10;;
12848;SDS011;6493;50.928;7.172;2024-01-15T12:59:55;1.23;;;1.07;;
12848;SDS011;6493;50.928;7.172;2024-01-15T13:04:58;1.33;;;1.07;;
12848;SDS011;6493;50.928;7.172;2024-01-15T13:10:04;1.33;;;1.00;;
12848;SDS011;6493;50.928;7.172;2024-01-15T13:15:09;2.50;;;1.33;;
12848;SDS011;6493;50.928;7.172;2024-01-15T13:20:15;1.37;;;1.23;;
12848;SDS011;6493;50.928;7.172;2024-01-15T13:25:20;1.40;;;0.90;;
12848;SDS011;6493;50.928;7.172;2024-01-15T13:30:24;1.83;;;1.20;;
12848;SDS011;6493;50.928;7.172;2024-01-15T13:35:27;2.20;;;1.23;;
12848;SDS011;6493;50.928;7.172;2024-01-15T13:40:32;1.60;;;1.10;;
12848;SDS011;6493;50.928;7.172;2024-01-15T13:45:36;2.90;;;1.53;;
12848;SDS011;6493;50.928;7.172;2024-01-15T13:50:40;1.30;;;1.07;;
12848;SDS011;6493;50.928;7.172;2024-01-15T13:55:45;2.50;;;0.90;;
12848;SDS011;6493;50.928;7.172;2024-01-15T14:00:49;1.10;;;0.70;;
12848;SDS011;6493;50.928;7.172;2024-01-15T14:05:54;1.10;;;0.83;;
12848;SDS011;6493;50.928;7.172;2024-01-15T14:10:59;1.27;;;0.90;;
12848;SDS011;6493;50.928;7.172;2024-01-15T14:16:02;1.57;;;0.80;;
12848;SDS011;6493;50.928;7.172;2024-01-15T14:21:07;1.10;;;0.80;;
12848;SDS011;6493;50.928;7.172;2024-01-15T14:26:12;1.37;;;0.97;;
12848;SDS011;6493;50.928;7.172;2024-01-15T14:31:19;1.13;;;0.80;;
12848;SDS011;6493;50.928;7.172;2024-01-15T14:36:23;1.23;;;0.60;;
12848;SDS011;6493;50.928;7.172;2024-01-15T14:41:28;0.80;;;0.80;;
12848;SDS011;6493;50.928;7.172;2024-01-15T14:46:33;0.50;;;0.50;;
12848;SDS011;6493;50.928;7.172;2024-01-15T14:51:36;0.63;;;0.50;;
12848;SDS011;6493;50.928;7.172;2024-01-15T14:56:42;1.00;;;0.67;;
12848;SDS011;6493;50.928;7.172;2024-01-15T15:01:45;0.90;;;0.70;;
12848;SDS011;6493;50.928;7.172;2024-01-15T15:06:49;0.80;;;0.80;;
12848;SDS011;6493;50.928;7.172;2024-01-15T15:11:54;1.17;;;0.80;;
12848;SDS011;6493;50.928;7.172;2024-01-15T15:16:58;0.80;;;0.70;;
12848;SDS011;6493;50.928;7.172;2024-01-15T15:22:02;2.40;;;0.70;;
12848;SDS011;6493;50.928;7.172;2024-01-15T15:27:07;0.80;;;0.60;;
12848;SDS011;6493;50.928;7.172;2024-01-15T15:32:11;0.60;;;0.60;;
12848;SDS011;6493;50.928;7.172;2024-01-15T15:37:15;1.07;;;0.70;;
12848;SDS011;6493;50.928;7.172;2024-01-15T15:42:21;0.80;;;0.77;;
12848;SDS011;6493;50.928;7.172;2024-01-15T15:47:26;1.50;;;1.00;;
12848;SDS011;6493;50.928;7.172;2024-01-15T15:52:29;1.10;;;0.90;;
12848;SDS011;6493;50.928;7.172;2024-01-15T15:57:34;0.73;;;0.73;;
12848;SDS011;6493;50.928;7.172;2024-01-15T16:02:38;1.10;;;1.00;;
12848;SDS011;6493;50.928;7.172;2024-01-15T16:07:42;0.90;;;0.90;;
12848;SDS011;6493;50.928;7.172;2024-01-15T16:12:47;1.60;;;0.77;;
12848;SDS011;6493;50.928;7.172;2024-01-15T16:17:50;0.80;;;0.80;;
12848;SDS011;6493;50.928;7.172;2024-01-15T16:23:14;1.03;;;0.90;;
12848;SDS011;6493;50.928;7.172;2024-01-15T16:28:40;0.80;;;0.80;;
12848;SDS011;6493;50.928;7.172;2024-01-15T16:33:46;1.47;;;0.97;;
12848;SDS011;6493;50.928;7.172;2024-01-15T16:38:58;1.00;;;0.90;;
12848;SDS011;6493;50.928;7.172;2024-01-15T16:44:05;0.80;;;0.80;;
12848;SDS011;6493;50.928;7.172;2024-01-15T16:49:08;0.57;;;0.57;;
12848;SDS011;6493;50.928;7.172;2024-01-15T16:54:13;1.23;;;0.90;;
12848;SDS011;6493;50.928;7.172;2024-01-15T16:59:18;0.60;;;0.57;;
12848;SDS011;6493;50.928;7.172;2024-01-15T17:04:22;1.00;;;0.80;;
12848;SDS011;6493;50.928;7.172;2024-01-15T17:09:26;1.03;;;0.83;;
12848;SDS011;6493;50.928;7.172;2024-01-15T17:14:33;0.97;;;0.77;;
12848;SDS011;6493;50.928;7.172;2024-01-15T17:19:37;0.80;;;0.80;;
12848;SDS011;6493;50.928;7.172;2024-01-15T17:24:40;0.97;;;0.90;;
12848;SDS011;6493;50.928;7.172;2024-01-15T17:29:45;0.60;;;0.60;;
12848;SDS011;6493;50.928;7.172;2024-01-15T17:34:49;1.50;;;1.30;;
12848;SDS011;6493;50.928;7.172;2024-01-15T17:39:53;2.60;;;1.20;;
12848;SDS011;6493;50.928;7.172;2024-01-15T17:44:59;1.03;;;0.93;;
12848;SDS011;6493;50.928;7.172;2024-01-15T17:50:02;1.43;;;0.90;;
12848;SDS011;6493;50.928;7.172;2024-01-15T17:55:06;1.47;;;0.90;;
12848;SDS011;6493;50.928;7.172;2024-01-15T18:00:13;1.00;;;0.87;;
12848;SDS011;6493;50.928;7.172;2024-01-15T18:05:17;2.20;;;0.97;;
12848;SDS011;6493;50.928;7.172;2024-01-15T18:10:21;0.90;;;0.83;;
12848;SDS011;6493;50.928;7.172;2024-01-15T18:15:26;3.13;;;1.20;;
12848;SDS011;6493;50.928;7.172;2024-01-15T18:20:30;1.60;;;1.00;;
12848;SDS011;6493;50.928;7.172;2024-01-15T18:25:33;1.20;;;1.00;;
12848;SDS011;6493;50.928;7.172;2024-01-15T18:30:38;3.83;;;2.30;;
12848;SDS011;6493;50.928;7.172;2024-01-15T18:35:42;1.43;;;1.33;;
12848;SDS011;6493;50.928;7.172;2024-01-15T18:40:46;1.40;;;1.13;;
12848;SDS011;6493;50.928;7.172;2024-01-15T18:45:51;1.40;;;1.20;;
12848;SDS011;6493;50.928;7.172;2024-01-15T18:50:54;1.20;;;1.00;;
12848;SDS011;6493;50.928;7.172;2024-01-15T18:55:58;1.33;;;1.20;;
12848;SDS011;6493;50.928;7.172;2024-01-15T19:01:05;2.73;;;1.13;;
12848;SDS011;6493;50.928;7.172;2024-01-15T19:06:09;2.10;;;1.10;;
12848;SDS011;6493;50.928;7.172;2024-01-15T19:11:17;1.23;;;1.10;;
12848;SDS011;6493;50.928;7.172;2024-01-15T19:16:23;3.80;;;3.50;;
12848;SDS011;6493;50.928;7.172;2024-01-15T19:21:26;3.20;;;2.83;;
12848;SDS011;6493;50.928;7.172;2024-01-15T19:26:30;3.47;;;2.53;;
12848;SDS011;6493;50.928;7.172;2024-01-15T19:31:35;2.20;;;2.00;;
12848;SDS011;6493;50.928;7.172;2024-01-15T19:36:39;3.60;;;2.00;;
12848;SDS011;6493;50.928;7.172;2024-01-15T19:41:42;7.37;;;4.73;;
12848;SDS011;6493;50.928;7.172;2024-01-15T19:46:49;5.53;;;2.87;;
12848;SDS011;6493;50.928;7.172;2024-01-15T19:51:56;2.60;;;1.67;;
12848;SDS011;6493;50.928;7.172;2024-01-15T19:56:59;3.40;;;1.93;;
12848;SDS011;6493;50.928;7.172;2024-01-15T20:02:04;5.13;;;3.10;;
12848;SDS011;6493;50.928;7.172;2024-01-15T20:07:08;3.27;;;1.83;;
12848;SDS011;6493;50.928;7.172;2024-01-15T20:12:34;1.87;;;1.50;;
12848;SDS011;6493;50.928;7.172;2024-01-15T20:17:51;2.70;;;1.50;;
12848;SDS011;6493;50.928;7.172;2024-01-15T20:23:07;1.77;;;1.50;;
12848;SDS011;6493;50.928;7.172;2024-01-15T20:28:16;3.20;;;1.60;;
12848;SDS011;6493;50.928;7.172;2024-01-15T20:33:28;3.03;;;1.63;;
12848;SDS011;6493;50.928;7.172;2024-01-15T20:38:36;3.03;;;1.80;;
12848;SDS011;6493;50.928;7.172;2024-01-15T20:43:55;1.93;;;1.50;;
12848;SDS011;6493;50.928;7.172;2024-01-15T20:49:03;1.90;;;1.70;;
12848;SDS011;6493;50.928;7.172;2024-01-15T20:54:17;2.40;;;1.90;;
12848;SDS011;6493;50.928;7.172;2024-01-15T21:00:01;2.97;;;1.60;;
12848;SDS011;6493;50.928;7.172;2024-01-15T21:05:07;1.87;;;1.50;;
12848;SDS011;6493;50.928;7.172;2024-01-15T21:10:11;2.33;;;1.80;;
12848;SDS011;6493;50.928;7.172;2024-01-15T21:15:16;2.47;;;1.53;;
12848;SDS011;6493;50.928;7.172;2024-01-15T21:20:21;1.23;;;1.13;;
12848;SDS011;6493;50.928;7.172;2024-01-15T21:25:24;3.50;;;1.63;;
12848;SDS011;6493;50.928;7.172;2024-01-15T21:30:28;2.10;;;1.23;;
12848;SDS011;6493;50.928;7.172;2024-01-15T21:35:36;2.33;;;1.50;;
12848;SDS011;6493;50.928;7.172;2024-01-15T21:40:40;1.60;;;1.47;;
12848;SDS011;6493;50.928;7.172;2024-01-15T21:45:44;1.60;;;1.30;;
12848;SDS011;6493;50.928;7.172;2024-01-15T21:50:50;3.77;;;1.30;;
12848;SDS011;6493;50.928;7.172;2024-01-15T21:55:53;2.07;;;1.20;;
12848;SDS011;6493;50.928;7.172;2024-01-15T22:00:57;1.40;;;1.00;;
12848;SDS011;6493;50.928;7.172;2024-01-15T22:06:03;2.10;;;0.80;;
12848;SDS011;6493;50.928;7.172;2024-01-15T22:11:07;2.37;;;1.30;;
12848;SDS011;6493;50.928;7.172;2024-01-15T22:16:11;1.63;;;0.90;;
12848;SDS011;6493;50.928;7.172;2024-01-15T22:21:16;1.47;;;1.10;;
12848;SDS011;6493;50.928;7.172;2024-01-15T22:26:20;0.87;;;0.80;;
12848;SDS011;6493;50.928;7.172;2024-01-15T22:31:23;2.03;;;1.20;;
12848;SDS011;6493;50.928;7.172;2024-01-15T22:36:28;1.10;;;1.00;;
12848;SDS011;6493;50.928;7.172;2024-01-15T22:41:33;1.40;;;1.27;;
12848;SDS011;6493;50.928;7.172;2024-01-15T22:46:36;1.30;;;1.20;;
12848;SDS011;6493;50.928;7.172;2024-01-15T22:51:41;0.97;;;0.90;;
12848;SDS011;6493;50.928;7.172;2024-01-15T22:56:45;2.33;;;1.50;;
12848;SDS011;6493;50.928;7.172;2024-01-15T23:01:49;2.73;;;1.33;;
12848;SDS011;6493;50.928;7.172;2024-01-15T23:06:54;2.97;;;1.40;;
12848;SDS011;6493;50.928;7.172;2024-01-15T23:11:57;1.50;;;1.27;;
12848;SDS011;6493;50.928;7.172;2024-01-15T23:17:01;1.77;;;1.60;;
12848;SDS011;6493;50.928;7.172;2024-01-15T23:22:06;3.37;;;1.60;;
12848;SDS011;6493;50.928;7.172;2024-01-15T23:27:09;1.30;;;1.20;;
12848;SDS011;6493;50.928;7.172;2024-01-15T23:32:13;1.20;;;1.10;;
12848;SDS011;6493;50.928;7.172;2024-01-15T23:37:18;2.67;;;1.43;;
12848;SDS011;6493;50.928;7.172;2024-01-15T23:42:22;1.30;;;1.20;;
12848;SDS011;6493;50.928;7.172;2024-01-15T23:47:25;1.70;;;1.60;;
12848;SDS011;6493;50.928;7.172;2024-01-15T23:52:30;1.60;;;1.30;;
12848;SDS011;6493;50.928;7.172;2024-01-15T23:57:34;1.93;;;1.70;;
